Jewel Of The Seas — C6FW9 — position and weather

sailwx.info

Track history (hours):
 
Tides and Currents Weather Stations Pressure Air Temp Water Temp Dewpoint Dewpoint Depression Visibility Wind Speed Wind Dir Waves Ship Positions

Jewel Of The Seas

Operator: Royal Caribbean Cruises Ltd

Last reported at 2019-Feb-15 23:49 UTC. Time now 2019-Feb-23 23:26 UTC.
Position N 25°32' W 079°56'.

Length 290 m; draft 8.6 m.

Type: Passenger vessel. MMSI: 311583000.

Date/timePositionNaut miles runAvg speedWind from/ knotsBaromVisibWave heightAir tempDewpointWater temp
2019-Feb-15 23:49N 25°32' W 079°56'516.2
2019-Feb-15 23:30N 25°36' W 079°58'815.6
2019-Feb-15 23:00N 25°44' W 080°01'510.6
2019-Feb-15 22:31N 25°46' W 080°06'4 7.7
2019-Feb-15 22:00N 25°47' W 080°10'0 0.3
2019-Feb-15 21:30N 25°47' W 080°11'0 0.0
2019-Feb-15 21:00N 25°47' W 080°11'0 0.0
2019-Feb-15 20:30N 25°47' W 080°11'0 0.0
2019-Feb-15 20:00N 25°47' W 080°11'0 0.0
2019-Feb-15 19:30N 25°47' W 080°11'0 0.0
2019-Feb-15 19:00N 25°47' W 080°11'0 0.0
2019-Feb-15 18:30N 25°47' W 080°11'0 0.0
2019-Feb-15 18:00N 25°47' W 080°11'0 0.0
2019-Feb-15 17:30N 25°47' W 080°11'0 0.0
2019-Feb-15 17:00N 25°47' W 080°11'0 0.0
2019-Feb-15 16:30N 25°47' W 080°11'0 0.0
2019-Feb-15 16:00N 25°47' W 080°11'0 0.0
2019-Feb-15 15:30N 25°47' W 080°11'0 0.0
2019-Feb-15 14:57N 25°47' W 080°11'0 0.0
2019-Feb-15 14:27N 25°47' W 080°11'0 0.0
2019-Feb-15 14:00N 25°47' W 080°11'0 0.0
2019-Feb-15 13:30N 25°47' W 080°11'0 0.0
2019-Feb-15 13:00N 25°47' W 080°11'0 0.0
2019-Feb-15 12:30N 25°47' W 080°11'0 0.0
2019-Feb-15 11:57N 25°47' W 080°11'0 0.0
2019-Feb-15 11:30N 25°47' W 080°11'0 0.0
2019-Feb-15 10:57N 25°47' W 080°11'0 0.0
2019-Feb-15 10:28N 25°47' W 080°11'0 0.7
2019-Feb-15 10:00N 25°47' W 080°11'3 6.8
2019-Feb-15 09:30N 25°46' W 080°07'611.3
2019-Feb-15 09:00N 25°46' W 080°01'714.2
2019-Feb-15 08:30N 25°41' W 079°56'817.0
2019-Feb-15 08:00N 25°33' W 079°53'  
2019-Feb-12 07:00N 25°12' W 075°48'216 7.1 110 / 151021.610.8 24.024.025.0
2019-Feb-11 00:25N 25°57' W 079°42'615.1
2019-Feb-11 00:00N 25°54' W 079°48'714.8
2019-Feb-10 23:30N 25°51' W 079°56'714.8
2019-Feb-10 23:00N 25°47' W 080°02'5 9.7
2019-Feb-10 22:30N 25°46' W 080°08'3 4.5
2019-Feb-10 21:55N 25°47' W 080°10'0 0.0
2019-Feb-10 21:28N 25°47' W 080°10'0 0.0
2019-Feb-10 20:58N 25°47' W 080°10'0 0.0
2019-Feb-10 20:28N 25°47' W 080°10'0 0.0
2019-Feb-10 19:58N 25°47' W 080°10'0 0.0
2019-Feb-10 19:28N 25°47' W 080°10'0 0.0
2019-Feb-10 18:55N 25°47' W 080°10'0 0.0
2019-Feb-10 18:25N 25°47' W 080°10'0 0.0
2019-Feb-10 17:58N 25°47' W 080°10'0 0.0
2019-Feb-10 17:28N 25°47' W 080°10'0 0.0
2019-Feb-10 16:58N 25°47' W 080°10'0 0.0
2019-Feb-10 16:28N 25°47' W 080°10'0 0.0
2019-Feb-10 15:58N 25°47' W 080°10'0 0.0
2019-Feb-10 15:28N 25°47' W 080°10'0 0.0
2019-Feb-10 14:58N 25°47' W 080°10'0 0.0
2019-Feb-10 14:28N 25°47' W 080°10'0 0.0
2019-Feb-10 13:58N 25°47' W 080°10'0 0.0
2019-Feb-10 13:28N 25°47' W 080°10'0 0.0
2019-Feb-10 12:58N 25°47' W 080°10'0 0.2
2019-Feb-10 12:31N 25°47' W 080°10'1 1.2
2019-Feb-10 12:01N 25°47' W 080°10'4 8.7
2019-Feb-10 11:30N 25°46' W 080°05'4 7.8
2019-Feb-10 11:00N 25°46' W 080°01'918.5
2019-Feb-10 10:31N 25°39' W 079°54'1525.7
2019-Feb-10 09:56N 25°25' W 079°49'46718.7
2019-Feb-09 09:00N 19°36' W 074°12'   050 / 271018.610.8 25.324.926.0
Track history (hours):
 
Tides and Currents Weather Stations Pressure Air Temp Water Temp Dewpoint Dewpoint Depression Visibility Wind Speed Wind Dir Waves Ship Positions

Jewel Of The Seas

Operator: Royal Caribbean Cruises Ltd

Last reported at 2019-Feb-15 23:49 UTC. Time now 2019-Feb-23 23:26 UTC.
Position N 25°32' W 079°56'.

Length 290 m; draft 8.6 m.

Type: Passenger vessel. MMSI: 311583000.

Date/timePositionNaut miles runAvg speedWind from/ knotsBaromVisibWave heightAir tempDewpointWater temp
2019-Feb-15 23:49N 25°32' W 079°56'516.2
2019-Feb-15 23:30N 25°36' W 079°58'815.6
2019-Feb-15 23:00N 25°44' W 080°01'510.6
2019-Feb-15 22:31N 25°46' W 080°06'4 7.7
2019-Feb-15 22:00N 25°47' W 080°10'0 0.3
2019-Feb-15 21:30N 25°47' W 080°11'0 0.0
2019-Feb-15 21:00N 25°47' W 080°11'0 0.0
2019-Feb-15 20:30N 25°47' W 080°11'0 0.0
2019-Feb-15 20:00N 25°47' W 080°11'0 0.0
2019-Feb-15 19:30N 25°47' W 080°11'0 0.0
2019-Feb-15 19:00N 25°47' W 080°11'0 0.0
2019-Feb-15 18:30N 25°47' W 080°11'0 0.0
2019-Feb-15 18:00N 25°47' W 080°11'0 0.0
2019-Feb-15 17:30N 25°47' W 080°11'0 0.0
2019-Feb-15 17:00N 25°47' W 080°11'0 0.0
2019-Feb-15 16:30N 25°47' W 080°11'0 0.0
2019-Feb-15 16:00N 25°47' W 080°11'0 0.0
2019-Feb-15 15:30N 25°47' W 080°11'0 0.0
2019-Feb-15 14:57N 25°47' W 080°11'0 0.0
2019-Feb-15 14:27N 25°47' W 080°11'0 0.0
2019-Feb-15 14:00N 25°47' W 080°11'0 0.0
2019-Feb-15 13:30N 25°47' W 080°11'0 0.0
2019-Feb-15 13:00N 25°47' W 080°11'0 0.0
2019-Feb-15 12:30N 25°47' W 080°11'0 0.0
2019-Feb-15 11:57N 25°47' W 080°11'0 0.0
2019-Feb-15 11:30N 25°47' W 080°11'0 0.0
2019-Feb-15 10:57N 25°47' W 080°11'0 0.0
2019-Feb-15 10:28N 25°47' W 080°11'0 0.7
2019-Feb-15 10:00N 25°47' W 080°11'3 6.8
2019-Feb-15 09:30N 25°46' W 080°07'611.3
2019-Feb-15 09:00N 25°46' W 080°01'714.2
2019-Feb-15 08:30N 25°41' W 079°56'817.0
2019-Feb-15 08:00N 25°33' W 079°53'  
2019-Feb-12 07:00N 25°12' W 075°48'216 7.1 110 / 151021.610.8 24.024.025.0
2019-Feb-11 00:25N 25°57' W 079°42'615.1
2019-Feb-11 00:00N 25°54' W 079°48'714.8
2019-Feb-10 23:30N 25°51' W 079°56'714.8
2019-Feb-10 23:00N 25°47' W 080°02'5 9.7
2019-Feb-10 22:30N 25°46' W 080°08'3 4.5
2019-Feb-10 21:55N 25°47' W 080°10'0 0.0
2019-Feb-10 21:28N 25°47' W 080°10'0 0.0
2019-Feb-10 20:58N 25°47' W 080°10'0 0.0
2019-Feb-10 20:28N 25°47' W 080°10'0 0.0
2019-Feb-10 19:58N 25°47' W 080°10'0 0.0
2019-Feb-10 19:28N 25°47' W 080°10'0 0.0
2019-Feb-10 18:55N 25°47' W 080°10'0 0.0
2019-Feb-10 18:25N 25°47' W 080°10'0 0.0
2019-Feb-10 17:58N 25°47' W 080°10'0 0.0
2019-Feb-10 17:28N 25°47' W 080°10'0 0.0
2019-Feb-10 16:58N 25°47' W 080°10'0 0.0
2019-Feb-10 16:28N 25°47' W 080°10'0 0.0
2019-Feb-10 15:58N 25°47' W 080°10'0 0.0
2019-Feb-10 15:28N 25°47' W 080°10'0 0.0
2019-Feb-10 14:58N 25°47' W 080°10'0 0.0
2019-Feb-10 14:28N 25°47' W 080°10'0 0.0
2019-Feb-10 13:58N 25°47' W 080°10'0 0.0
2019-Feb-10 13:28N 25°47' W 080°10'0 0.0
2019-Feb-10 12:58N 25°47' W 080°10'0 0.2
2019-Feb-10 12:31N 25°47' W 080°10'1 1.2
2019-Feb-10 12:01N 25°47' W 080°10'4 8.7
2019-Feb-10 11:30N 25°46' W 080°05'4 7.8
2019-Feb-10 11:00N 25°46' W 080°01'918.5
2019-Feb-10 10:31N 25°39' W 079°54'1525.7
2019-Feb-10 09:56N 25°25' W 079°49'46718.7
2019-Feb-09 09:00N 19°36' W 074°12'   050 / 271018.610.8 25.324.926.0

Dump ship's entire track history